CheckWX is a tool to help pilots better visualize weather data.  It is not intended as a substitute for an official pre-flight weather briefing.

23:06:13 UTC

LFPB METAR
Paris-Le Bourget Airport
Paris, France
Current

36 mins ago

LFPB 062230Z AUTO 23009KT 9999 FEW020 BKN029 BKN038 11/08 Q1013 NOSIG
Observed
Dec-6 @ 22:30 UTC
Wind
  • 230° at 9 KTS
Visibility
10,000+ meters
Flight Rules
MVFR
Cloud Levels
  • Few at 2,000' AGL
  • Broken at 2,900' AGL
  • Broken at 3,800' AGL
Temperature
11°C / 52°F
Dewpoint
C / 46°F
Humidity
82%
Altimeter
29.91" Hg
Pressure
1012.92 hPa
Previous

1 hour ago

LFPB 062200Z AUTO 23010KT 9999 BKN020 BKN033 BKN043 11/08 Q1013 NOSIG
Observed
Dec-6 @ 22:00 UTC
Wind
  • 230° at 10 KTS
Visibility
10,000+ meters
Flight Rules
MVFR
Cloud Levels
  • Broken at 2,000' AGL
  • Broken at 3,300' AGL
  • Broken at 4,300' AGL
Temperature
11°C / 52°F
Dewpoint
C / 46°F
Humidity
82%
Altimeter
29.91" Hg
Pressure
1012.92 hPa
Previous

2 hours ago

LFPB 062130Z AUTO 22007KT 180V250 9999 SCT016 BKN021 BKN026 10/08 Q1013 NOSIG
Observed
Dec-6 @ 21:30 UTC
Wind
  • 220° at 7 KTS
Visibility
10,000+ meters
Flight Rules
MVFR
Cloud Levels
  • Scattered at 1,600' AGL
  • Broken at 2,100' AGL
  • Broken at 2,600' AGL
Temperature
10°C / 50°F
Dewpoint
C / 46°F
Humidity
88%
Altimeter
29.91" Hg
Pressure
1012.92 hPa